sensor_id;sensor_type;location;lat;lon;timestamp;P1;durP1;ratioP1;P2;durP2;ratioP2
76552;SDS011;65395;53.168;18.156;2023-02-18T00:01:30;15.40;;;1.50;;
76552;SDS011;65395;53.168;18.156;2023-02-18T00:03:58;7.00;;;0.80;;
76552;SDS011;65395;53.168;18.156;2023-02-18T00:06:27;7.10;;;0.90;;
76552;SDS011;65395;53.168;18.156;2023-02-18T00:08:56;11.70;;;1.30;;
76552;SDS011;65395;53.168;18.156;2023-02-18T00:11:28;12.20;;;1.10;;
76552;SDS011;65395;53.168;18.156;2023-02-18T00:13:56;6.00;;;0.90;;
76552;SDS011;65395;53.168;18.156;2023-02-18T00:16:28;9.50;;;1.10;;
76552;SDS011;65395;53.168;18.156;2023-02-18T00:18:56;8.30;;;0.90;;
76552;SDS011;65395;53.168;18.156;2023-02-18T00:21:25;7.50;;;1.00;;
76552;SDS011;65395;53.168;18.156;2023-02-18T00:23:52;7.50;;;1.00;;
76552;SDS011;65395;53.168;18.156;2023-02-18T00:26:19;8.60;;;1.30;;
76552;SDS011;65395;53.168;18.156;2023-02-18T00:28:47;8.50;;;1.30;;
76552;SDS011;65395;53.168;18.156;2023-02-18T00:31:15;9.00;;;1.40;;
76552;SDS011;65395;53.168;18.156;2023-02-18T00:33:44;13.30;;;1.10;;
76552;SDS011;65395;53.168;18.156;2023-02-18T00:36:12;6.20;;;0.80;;
76552;SDS011;65395;53.168;18.156;2023-02-18T00:38:44;8.10;;;1.30;;
76552;SDS011;65395;53.168;18.156;2023-02-18T00:41:12;9.10;;;1.20;;
76552;SDS011;65395;53.168;18.156;2023-02-18T00:43:39;7.80;;;1.40;;
76552;SDS011;65395;53.168;18.156;2023-02-18T00:46:06;7.70;;;1.30;;
76552;SDS011;65395;53.168;18.156;2023-02-18T00:48:33;11.00;;;1.10;;
76552;SDS011;65395;53.168;18.156;2023-02-18T00:51:02;5.30;;;0.80;;
76552;SDS011;65395;53.168;18.156;2023-02-18T00:53:30;11.90;;;1.20;;
76552;SDS011;65395;53.168;18.156;2023-02-18T00:55:57;11.50;;;1.80;;
76552;SDS011;65395;53.168;18.156;2023-02-18T00:58:23;10.80;;;1.20;;
76552;SDS011;65395;53.168;18.156;2023-02-18T01:00:50;6.70;;;0.90;;
76552;SDS011;65395;53.168;18.156;2023-02-18T01:03:17;6.10;;;1.10;;
76552;SDS011;65395;53.168;18.156;2023-02-18T01:05:44;11.50;;;1.10;;
76552;SDS011;65395;53.168;18.156;2023-02-18T01:08:11;10.70;;;1.60;;
76552;SDS011;65395;53.168;18.156;2023-02-18T01:10:40;10.00;;;1.20;;
76552;SDS011;65395;53.168;18.156;2023-02-18T01:13:08;9.50;;;0.90;;
76552;SDS011;65395;53.168;18.156;2023-02-18T01:15:35;8.90;;;1.30;;
76552;SDS011;65395;53.168;18.156;2023-02-18T01:18:02;7.50;;;0.80;;
76552;SDS011;65395;53.168;18.156;2023-02-18T01:20:33;8.80;;;1.10;;
76552;SDS011;65395;53.168;18.156;2023-02-18T01:23:01;10.40;;;1.10;;
76552;SDS011;65395;53.168;18.156;2023-02-18T01:25:28;10.50;;;1.20;;
76552;SDS011;65395;53.168;18.156;2023-02-18T01:27:55;7.00;;;1.00;;
76552;SDS011;65395;53.168;18.156;2023-02-18T01:30:23;9.80;;;1.20;;
76552;SDS011;65395;53.168;18.156;2023-02-18T01:32:50;9.40;;;1.30;;
76552;SDS011;65395;53.168;18.156;2023-02-18T01:35:18;8.70;;;1.40;;
76552;SDS011;65395;53.168;18.156;2023-02-18T01:37:45;11.30;;;1.30;;
76552;SDS011;65395;53.168;18.156;2023-02-18T01:40:14;12.10;;;1.40;;
76552;SDS011;65395;53.168;18.156;2023-02-18T01:42:44;9.90;;;1.00;;
76552;SDS011;65395;53.168;18.156;2023-02-18T01:50:40;9.60;;;1.30;;
76552;SDS011;65395;53.168;18.156;2023-02-18T01:53:12;5.40;;;0.90;;
76552;SDS011;65395;53.168;18.156;2023-02-18T01:55:42;11.00;;;0.90;;
76552;SDS011;65395;53.168;18.156;2023-02-18T01:58:10;9.70;;;1.20;;
76552;SDS011;65395;53.168;18.156;2023-02-18T02:00:38;11.70;;;1.20;;
76552;SDS011;65395;53.168;18.156;2023-02-18T02:03:06;7.10;;;1.30;;
76552;SDS011;65395;53.168;18.156;2023-02-18T02:05:33;16.00;;;1.30;;
76552;SDS011;65395;53.168;18.156;2023-02-18T02:08:00;18.10;;;1.50;;
76552;SDS011;65395;53.168;18.156;2023-02-18T02:10:35;6.00;;;0.90;;
76552;SDS011;65395;53.168;18.156;2023-02-18T02:13:27;6.70;;;1.30;;
76552;SDS011;65395;53.168;18.156;2023-02-18T02:16:05;10.50;;;1.00;;
76552;SDS011;65395;53.168;18.156;2023-02-18T02:18:42;9.10;;;1.40;;
76552;SDS011;65395;53.168;18.156;2023-02-18T02:21:31;6.10;;;0.90;;
76552;SDS011;65395;53.168;18.156;2023-02-18T02:27:13;11.00;;;1.10;;
76552;SDS011;65395;53.168;18.156;2023-02-18T02:32:41;7.10;;;0.80;;
76552;SDS011;65395;53.168;18.156;2023-02-18T02:35:31;8.90;;;1.10;;
76552;SDS011;65395;53.168;18.156;2023-02-18T02:38:06;7.90;;;0.80;;
76552;SDS011;65395;53.168;18.156;2023-02-18T02:43:43;6.10;;;1.00;;
76552;SDS011;65395;53.168;18.156;2023-02-18T02:46:30;8.70;;;1.20;;
76552;SDS011;65395;53.168;18.156;2023-02-18T02:49:09;8.30;;;1.20;;
76552;SDS011;65395;53.168;18.156;2023-02-18T02:52:02;13.00;;;1.40;;
76552;SDS011;65395;53.168;18.156;2023-02-18T02:54:35;6.50;;;0.90;;
76552;SDS011;65395;53.168;18.156;2023-02-18T02:57:03;9.10;;;1.40;;
76552;SDS011;65395;53.168;18.156;2023-02-18T02:59:32;5.90;;;0.70;;
76552;SDS011;65395;53.168;18.156;2023-02-18T03:02:11;7.10;;;1.00;;
76552;SDS011;65395;53.168;18.156;2023-02-18T03:05:04;13.60;;;1.50;;
76552;SDS011;65395;53.168;18.156;2023-02-18T03:07:54;11.30;;;1.30;;
76552;SDS011;65395;53.168;18.156;2023-02-18T03:10:42;13.80;;;1.40;;
76552;SDS011;65395;53.168;18.156;2023-02-18T03:13:17;10.80;;;1.50;;
76552;SDS011;65395;53.168;18.156;2023-02-18T03:15:57;10.00;;;0.80;;
76552;SDS011;65395;53.168;18.156;2023-02-18T03:18:35;12.10;;;1.20;;
76552;SDS011;65395;53.168;18.156;2023-02-18T03:23:52;6.70;;;0.90;;
76552;SDS011;65395;53.168;18.156;2023-02-18T03:26:24;6.30;;;0.80;;
76552;SDS011;65395;53.168;18.156;2023-02-18T03:28:53;4.40;;;0.80;;
76552;SDS011;65395;53.168;18.156;2023-02-18T03:31:26;11.30;;;1.20;;
76552;SDS011;65395;53.168;18.156;2023-02-18T03:33:58;9.00;;;1.10;;
76552;SDS011;65395;53.168;18.156;2023-02-18T03:36:31;5.60;;;1.20;;
76552;SDS011;65395;53.168;18.156;2023-02-18T03:39:03;7.00;;;0.80;;
76552;SDS011;65395;53.168;18.156;2023-02-18T03:41:33;10.90;;;1.10;;
76552;SDS011;65395;53.168;18.156;2023-02-18T03:44:01;7.30;;;0.70;;
76552;SDS011;65395;53.168;18.156;2023-02-18T03:46:31;10.80;;;1.10;;
76552;SDS011;65395;53.168;18.156;2023-02-18T03:49:00;8.50;;;0.90;;
76552;SDS011;65395;53.168;18.156;2023-02-18T03:51:26;9.70;;;1.30;;
76552;SDS011;65395;53.168;18.156;2023-02-18T03:53:53;8.50;;;1.10;;
76552;SDS011;65395;53.168;18.156;2023-02-18T03:56:20;7.50;;;0.60;;
76552;SDS011;65395;53.168;18.156;2023-02-18T03:58:47;5.20;;;1.00;;
76552;SDS011;65395;53.168;18.156;2023-02-18T04:01:14;7.50;;;0.90;;
76552;SDS011;65395;53.168;18.156;2023-02-18T04:03:41;6.90;;;0.90;;
76552;SDS011;65395;53.168;18.156;2023-02-18T04:06:08;12.50;;;1.20;;
76552;SDS011;65395;53.168;18.156;2023-02-18T04:08:35;8.90;;;0.70;;
76552;SDS011;65395;53.168;18.156;2023-02-18T04:11:03;6.80;;;1.10;;
76552;SDS011;65395;53.168;18.156;2023-02-18T04:13:30;7.00;;;0.80;;
76552;SDS011;65395;53.168;18.156;2023-02-18T04:15:57;7.30;;;0.90;;
76552;SDS011;65395;53.168;18.156;2023-02-18T04:18:24;10.30;;;1.10;;
76552;SDS011;65395;53.168;18.156;2023-02-18T04:20:51;9.50;;;1.30;;
76552;SDS011;65395;53.168;18.156;2023-02-18T04:23:18;11.00;;;1.30;;
76552;SDS011;65395;53.168;18.156;2023-02-18T04:25:44;9.80;;;0.90;;
76552;SDS011;65395;53.168;18.156;2023-02-18T04:28:12;10.60;;;1.70;;
76552;SDS011;65395;53.168;18.156;2023-02-18T04:30:40;12.20;;;1.60;;
76552;SDS011;65395;53.168;18.156;2023-02-18T04:33:08;6.70;;;0.70;;
76552;SDS011;65395;53.168;18.156;2023-02-18T04:35:35;8.90;;;1.00;;
76552;SDS011;65395;53.168;18.156;2023-02-18T04:38:03;6.70;;;1.40;;
76552;SDS011;65395;53.168;18.156;2023-02-18T04:40:30;7.90;;;1.20;;
76552;SDS011;65395;53.168;18.156;2023-02-18T04:42:57;8.20;;;0.90;;
76552;SDS011;65395;53.168;18.156;2023-02-18T04:45:25;5.40;;;1.00;;
76552;SDS011;65395;53.168;18.156;2023-02-18T04:47:52;9.90;;;1.60;;
76552;SDS011;65395;53.168;18.156;2023-02-18T04:50:20;4.10;;;0.70;;
76552;SDS011;65395;53.168;18.156;2023-02-18T04:52:48;7.10;;;0.90;;
76552;SDS011;65395;53.168;18.156;2023-02-18T04:55:15;10.50;;;1.10;;
76552;SDS011;65395;53.168;18.156;2023-02-18T04:57:42;7.30;;;0.90;;
76552;SDS011;65395;53.168;18.156;2023-02-18T05:00:09;6.00;;;0.80;;
76552;SDS011;65395;53.168;18.156;2023-02-18T05:02:40;7.70;;;1.10;;
76552;SDS011;65395;53.168;18.156;2023-02-18T05:05:06;11.00;;;1.20;;
76552;SDS011;65395;53.168;18.156;2023-02-18T05:07:34;11.50;;;1.30;;
76552;SDS011;65395;53.168;18.156;2023-02-18T05:10:02;8.60;;;1.20;;
76552;SDS011;65395;53.168;18.156;2023-02-18T05:12:29;11.10;;;1.10;;
76552;SDS011;65395;53.168;18.156;2023-02-18T05:14:56;11.10;;;1.20;;
76552;SDS011;65395;53.168;18.156;2023-02-18T05:17:22;9.00;;;0.90;;
76552;SDS011;65395;53.168;18.156;2023-02-18T05:19:49;9.50;;;1.30;;
76552;SDS011;65395;53.168;18.156;2023-02-18T05:22:16;7.90;;;1.00;;
76552;SDS011;65395;53.168;18.156;2023-02-18T05:24:42;10.80;;;1.50;;
76552;SDS011;65395;53.168;18.156;2023-02-18T05:27:09;10.20;;;1.50;;
76552;SDS011;65395;53.168;18.156;2023-02-18T05:29:36;5.60;;;0.80;;
76552;SDS011;65395;53.168;18.156;2023-02-18T05:32:02;13.80;;;1.30;;
76552;SDS011;65395;53.168;18.156;2023-02-18T05:34:29;14.30;;;1.40;;
76552;SDS011;65395;53.168;18.156;2023-02-18T05:36:56;9.80;;;1.40;;
76552;SDS011;65395;53.168;18.156;2023-02-18T05:39:23;10.80;;;1.20;;
76552;SDS011;65395;53.168;18.156;2023-02-18T05:41:49;7.70;;;0.90;;
76552;SDS011;65395;53.168;18.156;2023-02-18T05:44:16;9.80;;;1.20;;
76552;SDS011;65395;53.168;18.156;2023-02-18T05:46:53;12.70;;;2.40;;
76552;SDS011;65395;53.168;18.156;2023-02-18T05:49:19;7.50;;;1.00;;
76552;SDS011;65395;53.168;18.156;2023-02-18T05:51:46;16.20;;;1.30;;
76552;SDS011;65395;53.168;18.156;2023-02-18T05:54:13;7.40;;;1.00;;
76552;SDS011;65395;53.168;18.156;2023-02-18T05:56:40;8.70;;;1.10;;
76552;SDS011;65395;53.168;18.156;2023-02-18T05:59:06;7.80;;;0.80;;
76552;SDS011;65395;53.168;18.156;2023-02-18T06:01:33;9.10;;;1.10;;
76552;SDS011;65395;53.168;18.156;2023-02-18T06:04:00;8.90;;;1.10;;
76552;SDS011;65395;53.168;18.156;2023-02-18T06:06:27;8.80;;;1.10;;
76552;SDS011;65395;53.168;18.156;2023-02-18T06:08:53;8.50;;;1.20;;
76552;SDS011;65395;53.168;18.156;2023-02-18T06:11:20;13.90;;;1.20;;
76552;SDS011;65395;53.168;18.156;2023-02-18T06:13:47;9.40;;;1.40;;
76552;SDS011;65395;53.168;18.156;2023-02-18T06:16:14;8.40;;;1.00;;
76552;SDS011;65395;53.168;18.156;2023-02-18T06:18:41;10.90;;;1.50;;
76552;SDS011;65395;53.168;18.156;2023-02-18T06:21:08;14.30;;;1.20;;
76552;SDS011;65395;53.168;18.156;2023-02-18T06:23:35;12.40;;;1.20;;
76552;SDS011;65395;53.168;18.156;2023-02-18T06:26:02;6.30;;;1.20;;
76552;SDS011;65395;53.168;18.156;2023-02-18T06:28:29;10.70;;;1.70;;
76552;SDS011;65395;53.168;18.156;2023-02-18T06:30:55;7.50;;;1.10;;
76552;SDS011;65395;53.168;18.156;2023-02-18T06:33:22;10.90;;;1.50;;
76552;SDS011;65395;53.168;18.156;2023-02-18T06:35:58;10.50;;;1.60;;
76552;SDS011;65395;53.168;18.156;2023-02-18T06:38:26;9.90;;;1.40;;
76552;SDS011;65395;53.168;18.156;2023-02-18T06:40:53;13.10;;;1.20;;
76552;SDS011;65395;53.168;18.156;2023-02-18T06:43:20;12.30;;;1.40;;
76552;SDS011;65395;53.168;18.156;2023-02-18T06:45:47;15.80;;;1.40;;
76552;SDS011;65395;53.168;18.156;2023-02-18T06:48:13;11.70;;;1.70;;
76552;SDS011;65395;53.168;18.156;2023-02-18T06:50:42;14.00;;;1.10;;
76552;SDS011;65395;53.168;18.156;2023-02-18T06:53:09;14.50;;;1.70;;
76552;SDS011;65395;53.168;18.156;2023-02-18T06:55:37;10.40;;;1.10;;
76552;SDS011;65395;53.168;18.156;2023-02-18T06:58:04;14.20;;;1.80;;
76552;SDS011;65395;53.168;18.156;2023-02-18T07:00:31;13.20;;;1.20;;
76552;SDS011;65395;53.168;18.156;2023-02-18T07:02:58;15.40;;;1.60;;
76552;SDS011;65395;53.168;18.156;2023-02-18T07:05:25;15.10;;;1.20;;
76552;SDS011;65395;53.168;18.156;2023-02-18T07:07:51;12.20;;;1.40;;
76552;SDS011;65395;53.168;18.156;2023-02-18T07:10:19;15.30;;;1.80;;
76552;SDS011;65395;53.168;18.156;2023-02-18T07:12:45;8.20;;;0.90;;
76552;SDS011;65395;53.168;18.156;2023-02-18T07:15:13;11.40;;;1.80;;
76552;SDS011;65395;53.168;18.156;2023-02-18T07:17:40;12.00;;;1.30;;
76552;SDS011;65395;53.168;18.156;2023-02-18T07:20:07;8.70;;;1.20;;
76552;SDS011;65395;53.168;18.156;2023-02-18T07:22:34;14.80;;;1.40;;
76552;SDS011;65395;53.168;18.156;2023-02-18T07:25:01;12.80;;;1.20;;
76552;SDS011;65395;53.168;18.156;2023-02-18T07:27:28;12.30;;;1.40;;
76552;SDS011;65395;53.168;18.156;2023-02-18T07:29:55;10.20;;;1.20;;
76552;SDS011;65395;53.168;18.156;2023-02-18T07:32:22;11.50;;;1.10;;
76552;SDS011;65395;53.168;18.156;2023-02-18T07:34:50;8.20;;;1.10;;
76552;SDS011;65395;53.168;18.156;2023-02-18T07:37:18;10.20;;;1.10;;
76552;SDS011;65395;53.168;18.156;2023-02-18T07:39:46;17.20;;;1.80;;
76552;SDS011;65395;53.168;18.156;2023-02-18T07:42:12;13.90;;;1.60;;
76552;SDS011;65395;53.168;18.156;2023-02-18T07:44:40;12.00;;;1.40;;
76552;SDS011;65395;53.168;18.156;2023-02-18T07:47:07;9.70;;;1.00;;
76552;SDS011;65395;53.168;18.156;2023-02-18T07:49:37;14.20;;;1.50;;
76552;SDS011;65395;53.168;18.156;2023-02-18T07:52:04;14.10;;;1.40;;
76552;SDS011;65395;53.168;18.156;2023-02-18T07:54:31;17.00;;;1.30;;
76552;SDS011;65395;53.168;18.156;2023-02-18T07:56:58;8.30;;;1.30;;
76552;SDS011;65395;53.168;18.156;2023-02-18T07:59:24;14.00;;;1.50;;
76552;SDS011;65395;53.168;18.156;2023-02-18T08:01:51;12.30;;;1.50;;
76552;SDS011;65395;53.168;18.156;2023-02-18T08:04:18;14.60;;;2.10;;
76552;SDS011;65395;53.168;18.156;2023-02-18T08:06:45;12.90;;;1.40;;
76552;SDS011;65395;53.168;18.156;2023-02-18T08:09:14;12.60;;;1.70;;
76552;SDS011;65395;53.168;18.156;2023-02-18T08:11:41;10.30;;;1.10;;
76552;SDS011;65395;53.168;18.156;2023-02-18T08:14:09;15.30;;;1.40;;
76552;SDS011;65395;53.168;18.156;2023-02-18T08:16:36;8.50;;;1.50;;
76552;SDS011;65395;53.168;18.156;2023-02-18T08:19:03;13.10;;;1.30;;
76552;SDS011;65395;53.168;18.156;2023-02-18T08:21:30;12.30;;;1.70;;
76552;SDS011;65395;53.168;18.156;2023-02-18T08:23:57;10.20;;;1.80;;
76552;SDS011;65395;53.168;18.156;2023-02-18T08:26:25;10.10;;;1.30;;
76552;SDS011;65395;53.168;18.156;2023-02-18T08:28:52;16.90;;;1.90;;
76552;SDS011;65395;53.168;18.156;2023-02-18T08:31:26;11.50;;;1.80;;
76552;SDS011;65395;53.168;18.156;2023-02-18T08:33:54;11.30;;;1.20;;
76552;SDS011;65395;53.168;18.156;2023-02-18T08:36:23;12.10;;;1.20;;
76552;SDS011;65395;53.168;18.156;2023-02-18T08:38:50;8.60;;;1.10;;
76552;SDS011;65395;53.168;18.156;2023-02-18T08:41:16;10.60;;;1.50;;
76552;SDS011;65395;53.168;18.156;2023-02-18T08:43:45;11.70;;;1.50;;
76552;SDS011;65395;53.168;18.156;2023-02-18T08:46:13;10.60;;;1.50;;
76552;SDS011;65395;53.168;18.156;2023-02-18T08:48:41;17.10;;;1.50;;
76552;SDS011;65395;53.168;18.156;2023-02-18T08:51:10;10.80;;;1.60;;
76552;SDS011;65395;53.168;18.156;2023-02-18T08:53:38;11.70;;;1.70;;
76552;SDS011;65395;53.168;18.156;2023-02-18T08:56:06;11.60;;;1.60;;
76552;SDS011;65395;53.168;18.156;2023-02-18T08:58:34;12.60;;;1.70;;
76552;SDS011;65395;53.168;18.156;2023-02-18T09:01:03;9.00;;;1.40;;
76552;SDS011;65395;53.168;18.156;2023-02-18T09:03:35;12.50;;;1.60;;
76552;SDS011;65395;53.168;18.156;2023-02-18T09:06:06;11.90;;;1.90;;
76552;SDS011;65395;53.168;18.156;2023-02-18T09:08:34;9.10;;;1.30;;
76552;SDS011;65395;53.168;18.156;2023-02-18T09:11:01;12.40;;;1.70;;
76552;SDS011;65395;53.168;18.156;2023-02-18T09:13:30;12.70;;;1.80;;
76552;SDS011;65395;53.168;18.156;2023-02-18T09:15:59;12.20;;;1.50;;
76552;SDS011;65395;53.168;18.156;2023-02-18T09:18:30;13.80;;;1.70;;
76552;SDS011;65395;53.168;18.156;2023-02-18T09:20:58;12.80;;;1.30;;
76552;SDS011;65395;53.168;18.156;2023-02-18T09:23:26;10.50;;;1.40;;
76552;SDS011;65395;53.168;18.156;2023-02-18T09:25:55;9.80;;;1.40;;
76552;SDS011;65395;53.168;18.156;2023-02-18T09:28:23;8.10;;;1.80;;
76552;SDS011;65395;53.168;18.156;2023-02-18T09:30:50;11.80;;;1.30;;
76552;SDS011;65395;53.168;18.156;2023-02-18T09:33:17;9.00;;;1.50;;
76552;SDS011;65395;53.168;18.156;2023-02-18T09:35:45;16.10;;;2.10;;
76552;SDS011;65395;53.168;18.156;2023-02-18T09:38:13;12.70;;;1.80;;
76552;SDS011;65395;53.168;18.156;2023-02-18T09:40:43;12.80;;;1.50;;
76552;SDS011;65395;53.168;18.156;2023-02-18T09:43:38;15.40;;;1.40;;
76552;SDS011;65395;53.168;18.156;2023-02-18T09:48:47;11.50;;;1.10;;
76552;SDS011;65395;53.168;18.156;2023-02-18T09:51:15;11.90;;;1.80;;
76552;SDS011;65395;53.168;18.156;2023-02-18T09:53:44;13.60;;;1.50;;
76552;SDS011;65395;53.168;18.156;2023-02-18T09:56:14;9.00;;;1.50;;
76552;SDS011;65395;53.168;18.156;2023-02-18T09:58:45;15.10;;;1.60;;
76552;SDS011;65395;53.168;18.156;2023-02-18T10:04:02;11.00;;;1.60;;
76552;SDS011;65395;53.168;18.156;2023-02-18T10:06:37;16.00;;;2.00;;
76552;SDS011;65395;53.168;18.156;2023-02-18T10:09:08;11.00;;;1.70;;
76552;SDS011;65395;53.168;18.156;2023-02-18T10:11:45;11.70;;;1.50;;
76552;SDS011;65395;53.168;18.156;2023-02-18T10:14:16;12.00;;;1.50;;
76552;SDS011;65395;53.168;18.156;2023-02-18T10:16:44;10.40;;;1.80;;
76552;SDS011;65395;53.168;18.156;2023-02-18T10:21:58;15.30;;;1.40;;
76552;SDS011;65395;53.168;18.156;2023-02-18T10:24:30;12.90;;;1.20;;
76552;SDS011;65395;53.168;18.156;2023-02-18T10:27:02;15.70;;;1.70;;
76552;SDS011;65395;53.168;18.156;2023-02-18T10:29:31;12.00;;;1.30;;
76552;SDS011;65395;53.168;18.156;2023-02-18T10:34:46;9.70;;;1.80;;
76552;SDS011;65395;53.168;18.156;2023-02-18T10:37:24;11.90;;;1.80;;
76552;SDS011;65395;53.168;18.156;2023-02-18T10:40:10;14.50;;;1.80;;
76552;SDS011;65395;53.168;18.156;2023-02-18T10:42:54;13.70;;;2.00;;
76552;SDS011;65395;53.168;18.156;2023-02-18T10:45:46;14.20;;;2.10;;
76552;SDS011;65395;53.168;18.156;2023-02-18T10:48:38;7.60;;;1.20;;
76552;SDS011;65395;53.168;18.156;2023-02-18T10:51:22;13.40;;;1.50;;
76552;SDS011;65395;53.168;18.156;2023-02-18T10:53:54;11.00;;;1.40;;
76552;SDS011;65395;53.168;18.156;2023-02-18T10:59:08;9.70;;;1.50;;
76552;SDS011;65395;53.168;18.156;2023-02-18T11:01:38;11.00;;;1.80;;
76552;SDS011;65395;53.168;18.156;2023-02-18T11:04:11;12.90;;;1.90;;
76552;SDS011;65395;53.168;18.156;2023-02-18T11:06:44;13.20;;;1.70;;
76552;SDS011;65395;53.168;18.156;2023-02-18T11:14:37;14.10;;;2.00;;
76552;SDS011;65395;53.168;18.156;2023-02-18T11:17:08;13.60;;;2.60;;
76552;SDS011;65395;53.168;18.156;2023-02-18T11:19:42;11.60;;;1.90;;
76552;SDS011;65395;53.168;18.156;2023-02-18T11:22:19;14.40;;;1.90;;
76552;SDS011;65395;53.168;18.156;2023-02-18T11:24:52;11.90;;;2.00;;
76552;SDS011;65395;53.168;18.156;2023-02-18T11:27:22;14.00;;;2.10;;
76552;SDS011;65395;53.168;18.156;2023-02-18T11:29:53;8.40;;;1.70;;
76552;SDS011;65395;53.168;18.156;2023-02-18T11:32:26;15.40;;;2.30;;
76552;SDS011;65395;53.168;18.156;2023-02-18T11:34:54;11.50;;;2.40;;
76552;SDS011;65395;53.168;18.156;2023-02-18T11:37:22;15.00;;;1.90;;
76552;SDS011;65395;53.168;18.156;2023-02-18T11:39:49;12.30;;;2.00;;
76552;SDS011;65395;53.168;18.156;2023-02-18T11:42:19;8.10;;;1.90;;
76552;SDS011;65395;53.168;18.156;2023-02-18T11:44:57;14.90;;;1.90;;
76552;SDS011;65395;53.168;18.156;2023-02-18T11:47:32;13.90;;;1.50;;
76552;SDS011;65395;53.168;18.156;2023-02-18T11:50:03;11.40;;;1.90;;
76552;SDS011;65395;53.168;18.156;2023-02-18T11:52:44;13.00;;;2.00;;
76552;SDS011;65395;53.168;18.156;2023-02-18T11:55:14;12.70;;;1.70;;
76552;SDS011;65395;53.168;18.156;2023-02-18T11:57:54;10.40;;;2.00;;
76552;SDS011;65395;53.168;18.156;2023-02-18T12:00:41;12.60;;;1.50;;
76552;SDS011;65395;53.168;18.156;2023-02-18T12:06:03;12.50;;;2.20;;
76552;SDS011;65395;53.168;18.156;2023-02-18T12:08:50;11.20;;;2.00;;
76552;SDS011;65395;53.168;18.156;2023-02-18T12:11:25;10.50;;;2.10;;
76552;SDS011;65395;53.168;18.156;2023-02-18T12:13:57;8.90;;;1.60;;
76552;SDS011;65395;53.168;18.156;2023-02-18T12:16:33;12.50;;;1.90;;
76552;SDS011;65395;53.168;18.156;2023-02-18T12:22:17;10.00;;;1.80;;
76552;SDS011;65395;53.168;18.156;2023-02-18T12:27:42;7.20;;;1.40;;
76552;SDS011;65395;53.168;18.156;2023-02-18T12:41:33;10.30;;;1.70;;
76552;SDS011;65395;53.168;18.156;2023-02-18T12:47:10;12.10;;;2.10;;
76552;SDS011;65395;53.168;18.156;2023-02-18T12:55:37;14.90;;;2.00;;
76552;SDS011;65395;53.168;18.156;2023-02-18T13:06:47;14.30;;;1.60;;
76552;SDS011;65395;53.168;18.156;2023-02-18T13:09:46;8.50;;;1.70;;
76552;SDS011;65395;53.168;18.156;2023-02-18T13:15:20;14.00;;;2.10;;
76552;SDS011;65395;53.168;18.156;2023-02-18T13:17:55;12.00;;;1.60;;
76552;SDS011;65395;53.168;18.156;2023-02-18T13:23:11;8.90;;;1.50;;
76552;SDS011;65395;53.168;18.156;2023-02-18T13:25:44;13.10;;;1.60;;
76552;SDS011;65395;53.168;18.156;2023-02-18T13:28:22;15.60;;;1.90;;
76552;SDS011;65395;53.168;18.156;2023-02-18T13:33:46;9.20;;;2.10;;
76552;SDS011;65395;53.168;18.156;2023-02-18T13:36:43;12.70;;;1.70;;
76552;SDS011;65395;53.168;18.156;2023-02-18T13:39:20;7.60;;;1.60;;
76552;SDS011;65395;53.168;18.156;2023-02-18T13:41:49;9.10;;;2.00;;
76552;SDS011;65395;53.168;18.156;2023-02-18T13:44:38;12.50;;;2.70;;
76552;SDS011;65395;53.168;18.156;2023-02-18T13:47:06;11.70;;;2.10;;
76552;SDS011;65395;53.168;18.156;2023-02-18T13:49:36;11.30;;;1.90;;
76552;SDS011;65395;53.168;18.156;2023-02-18T13:52:05;8.20;;;2.00;;
76552;SDS011;65395;53.168;18.156;2023-02-18T13:54:43;8.50;;;1.80;;
76552;SDS011;65395;53.168;18.156;2023-02-18T13:57:14;10.30;;;2.50;;
76552;SDS011;65395;53.168;18.156;2023-02-18T13:59:47;13.60;;;2.20;;
76552;SDS011;65395;53.168;18.156;2023-02-18T14:07:48;11.60;;;2.20;;
76552;SDS011;65395;53.168;18.156;2023-02-18T14:10:24;10.30;;;2.20;;
76552;SDS011;65395;53.168;18.156;2023-02-18T14:15:50;15.30;;;2.00;;
76552;SDS011;65395;53.168;18.156;2023-02-18T14:18:23;7.10;;;1.30;;
76552;SDS011;65395;53.168;18.156;2023-02-18T14:21:03;8.00;;;1.90;;
76552;SDS011;65395;53.168;18.156;2023-02-18T14:23:54;7.60;;;1.90;;
76552;SDS011;65395;53.168;18.156;2023-02-18T14:26:24;9.50;;;1.70;;
76552;SDS011;65395;53.168;18.156;2023-02-18T14:28:58;11.20;;;2.00;;
76552;SDS011;65395;53.168;18.156;2023-02-18T14:31:39;6.90;;;1.90;;
76552;SDS011;65395;53.168;18.156;2023-02-18T14:45:30;6.90;;;1.70;;
76552;SDS011;65395;53.168;18.156;2023-02-18T14:48:19;4.80;;;1.60;;
76552;SDS011;65395;53.168;18.156;2023-02-18T14:51:01;9.30;;;1.90;;
76552;SDS011;65395;53.168;18.156;2023-02-18T14:53:28;5.60;;;1.30;;
76552;SDS011;65395;53.168;18.156;2023-02-18T14:56:00;6.80;;;2.00;;
76552;SDS011;65395;53.168;18.156;2023-02-18T14:58:31;6.40;;;1.60;;
76552;SDS011;65395;53.168;18.156;2023-02-18T15:03:44;6.80;;;1.40;;
76552;SDS011;65395;53.168;18.156;2023-02-18T15:06:21;6.70;;;1.90;;
76552;SDS011;65395;53.168;18.156;2023-02-18T15:08:54;11.80;;;1.70;;
76552;SDS011;65395;53.168;18.156;2023-02-18T15:11:22;7.30;;;1.90;;
76552;SDS011;65395;53.168;18.156;2023-02-18T15:14:01;9.70;;;2.20;;
76552;SDS011;65395;53.168;18.156;2023-02-18T15:16:36;5.30;;;2.10;;
76552;SDS011;65395;53.168;18.156;2023-02-18T15:19:05;7.40;;;2.30;;
76552;SDS011;65395;53.168;18.156;2023-02-18T15:21:39;6.50;;;1.80;;
76552;SDS011;65395;53.168;18.156;2023-02-18T15:24:22;5.60;;;1.60;;
76552;SDS011;65395;53.168;18.156;2023-02-18T15:26:53;5.50;;;1.60;;
76552;SDS011;65395;53.168;18.156;2023-02-18T15:29:24;5.00;;;1.70;;
76552;SDS011;65395;53.168;18.156;2023-02-18T15:31:54;4.30;;;1.30;;
76552;SDS011;65395;53.168;18.156;2023-02-18T15:34:28;5.40;;;1.70;;
76552;SDS011;65395;53.168;18.156;2023-02-18T15:37:00;3.10;;;1.40;;
76552;SDS011;65395;53.168;18.156;2023-02-18T15:39:29;5.50;;;1.70;;
76552;SDS011;65395;53.168;18.156;2023-02-18T15:42:01;5.50;;;2.00;;
76552;SDS011;65395;53.168;18.156;2023-02-18T15:44:35;4.90;;;1.50;;
76552;SDS011;65395;53.168;18.156;2023-02-18T15:47:04;5.20;;;1.90;;
76552;SDS011;65395;53.168;18.156;2023-02-18T15:49:34;5.00;;;1.80;;
76552;SDS011;65395;53.168;18.156;2023-02-18T15:52:03;8.20;;;2.50;;
76552;SDS011;65395;53.168;18.156;2023-02-18T15:54:32;5.10;;;1.90;;
76552;SDS011;65395;53.168;18.156;2023-02-18T15:56:59;6.60;;;1.90;;
76552;SDS011;65395;53.168;18.156;2023-02-18T15:59:30;5.20;;;1.90;;
76552;SDS011;65395;53.168;18.156;2023-02-18T16:02:07;6.70;;;2.10;;
76552;SDS011;65395;53.168;18.156;2023-02-18T16:04:44;5.50;;;2.00;;
76552;SDS011;65395;53.168;18.156;2023-02-18T16:07:20;4.30;;;1.50;;
76552;SDS011;65395;53.168;18.156;2023-02-18T16:12:38;4.00;;;1.80;;
76552;SDS011;65395;53.168;18.156;2023-02-18T16:15:05;6.20;;;2.40;;
76552;SDS011;65395;53.168;18.156;2023-02-18T16:17:33;6.80;;;2.00;;
76552;SDS011;65395;53.168;18.156;2023-02-18T16:20:14;6.30;;;2.50;;
76552;SDS011;65395;53.168;18.156;2023-02-18T16:22:51;6.90;;;2.50;;
76552;SDS011;65395;53.168;18.156;2023-02-18T16:25:22;5.70;;;2.20;;
76552;SDS011;65395;53.168;18.156;2023-02-18T16:27:53;8.20;;;2.80;;
76552;SDS011;65395;53.168;18.156;2023-02-18T16:30:30;7.60;;;2.20;;
76552;SDS011;65395;53.168;18.156;2023-02-18T16:32:58;6.80;;;1.90;;
76552;SDS011;65395;53.168;18.156;2023-02-18T16:35:26;4.90;;;2.00;;
76552;SDS011;65395;53.168;18.156;2023-02-18T16:37:55;6.10;;;2.00;;